createdAt,value
2019-04-04T00:00:18.419Z,7.90
2019-04-04T00:02:49.817Z,7.77
2019-04-04T00:05:21.260Z,7.90
2019-04-04T00:07:52.118Z,10.60
2019-04-04T00:10:22.955Z,8.90
2019-04-04T00:12:53.786Z,7.60
2019-04-04T00:15:26.203Z,10.33
2019-04-04T00:17:56.999Z,7.50
2019-04-04T00:20:27.784Z,10.27
2019-04-04T00:22:58.574Z,8.23
2019-04-04T00:25:29.363Z,11.43
2019-04-04T00:28:01.217Z,10.50
2019-04-04T00:30:32.013Z,8.93
2019-04-04T00:33:03.056Z,8.67
2019-04-04T00:35:34.411Z,7.60
2019-04-04T00:38:07.066Z,7.87
2019-04-04T00:40:37.781Z,8.70
2019-04-04T00:43:08.643Z,10.27
2019-04-04T00:45:39.421Z,10.10
2019-04-04T00:48:10.175Z,10.10
2019-04-04T00:50:41.031Z,9.00
2019-04-04T00:53:12.344Z,9.63
2019-04-04T00:55:43.160Z,10.80
2019-04-04T00:58:13.973Z,8.43
2019-04-04T01:00:44.775Z,8.47
2019-04-04T01:03:15.525Z,10.57
2019-04-04T01:05:46.261Z,10.63
2019-04-04T01:08:16.955Z,10.40
2019-04-04T01:10:49.555Z,10.23
2019-04-04T01:13:22.962Z,11.23
2019-04-04T01:15:52.566Z,11.70
2019-04-04T01:18:23.696Z,8.90
2019-04-04T01:20:54.410Z,10.20
2019-04-04T01:23:27.009Z,10.03
2019-04-04T01:25:57.690Z,9.10
2019-04-04T01:28:28.433Z,10.33
2019-04-04T01:30:59.232Z,12.03
2019-04-04T01:33:30.027Z,11.70
2019-04-04T01:36:01.616Z,10.90
2019-04-04T01:38:32.578Z,12.17
2019-04-04T01:41:04.525Z,10.67
2019-04-04T01:43:35.887Z,10.40
2019-04-04T01:46:06.686Z,10.77
2019-04-04T01:48:38.063Z,10.37
2019-04-04T01:51:08.850Z,10.80
2019-04-04T01:53:39.719Z,11.30
2019-04-04T01:56:10.505Z,10.00
2019-04-04T01:58:42.006Z,10.93
2019-04-04T02:01:12.843Z,10.27
2019-04-04T02:03:43.600Z,9.93
2019-04-04T02:06:14.401Z,10.43
2019-04-04T02:08:45.224Z,9.00
2019-04-04T02:11:15.996Z,10.60
2019-04-04T02:13:46.731Z,9.53
2019-04-04T02:16:17.554Z,10.87
2019-04-04T02:18:48.330Z,9.60
2019-04-04T02:21:19.078Z,10.40
2019-04-04T02:23:49.870Z,10.33
2019-04-04T02:26:20.637Z,8.73
2019-04-04T02:28:51.381Z,9.57
2019-04-04T02:31:22.555Z,9.20
2019-04-04T02:33:53.291Z,11.37
2019-04-04T02:36:24.962Z,10.03
2019-04-04T02:39:09.148Z,9.97
2019-04-04T02:41:39.888Z,11.00
2019-04-04T02:44:10.624Z,8.13
2019-04-04T02:46:44.099Z,10.83
2019-04-04T02:49:14.271Z,10.00
2019-04-04T02:51:45.013Z,9.87
2019-04-04T02:54:15.875Z,7.80
2019-04-04T02:56:46.639Z,10.40
2019-04-04T02:59:21.463Z,9.83
2019-04-04T03:01:49.985Z,9.77
2019-04-04T03:04:20.706Z,10.03
2019-04-04T03:06:51.496Z,8.57
2019-04-04T03:09:22.376Z,11.20
2019-04-04T03:11:53.905Z,11.47
2019-04-04T03:14:26.483Z,10.90
2019-04-04T03:16:57.899Z,10.53
2019-04-04T03:19:29.628Z,12.97
2019-04-04T03:22:00.385Z,11.07
2019-04-04T03:24:31.142Z,10.83
2019-04-04T03:27:01.902Z,10.87
2019-04-04T03:29:37.292Z,9.33
2019-04-04T03:32:05.200Z,9.10
2019-04-04T03:34:35.986Z,10.57
2019-04-04T03:37:11.978Z,10.83
2019-04-04T03:39:40.053Z,10.00
2019-04-04T03:42:10.909Z,10.43
2019-04-04T03:44:41.677Z,8.80
2019-04-04T03:47:12.453Z,8.57
2019-04-04T03:49:44.129Z,13.50
2019-04-04T03:52:14.928Z,11.73
2019-04-04T03:54:45.688Z,10.63
2019-04-04T03:57:16.420Z,9.43
2019-04-04T03:59:47.183Z,12.93
2019-04-04T04:02:18.690Z,11.30
2019-04-04T04:04:49.813Z,11.03
2019-04-04T04:07:20.562Z,11.83
2019-04-04T04:09:51.314Z,13.00
2019-04-04T04:12:22.109Z,11.33
2019-04-04T04:14:54.907Z,13.53
2019-04-04T04:17:27.057Z,10.40
2019-04-04T04:20:03.297Z,11.43
2019-04-04T04:22:33.370Z,11.80
2019-04-04T04:25:05.174Z,14.23
2019-04-04T04:27:35.934Z,11.30
2019-04-04T04:30:10.602Z,12.37
2019-04-04T04:32:43.016Z,12.13
2019-04-04T04:35:13.791Z,11.27
2019-04-04T04:37:45.612Z,12.83
2019-04-04T04:40:16.346Z,10.37
2019-04-04T04:42:47.131Z,15.97
2019-04-04T04:45:17.903Z,13.53
2019-04-04T04:47:48.706Z,13.97
2019-04-04T04:50:20.751Z,14.07
2019-04-04T04:52:51.562Z,15.13
2019-04-04T04:55:24.497Z,13.27
2019-04-04T04:57:56.526Z,13.43
2019-04-04T05:00:28.137Z,14.00
2019-04-04T05:02:59.032Z,13.13
2019-04-04T05:05:31.939Z,13.60
2019-04-04T05:08:02.279Z,12.80
2019-04-04T05:10:33.027Z,12.50
2019-04-04T05:13:04.289Z,11.57
2019-04-04T05:15:35.119Z,10.83
2019-04-04T05:18:05.929Z,11.07
2019-04-04T05:20:36.790Z,13.10
2019-04-04T05:23:07.573Z,12.63
2019-04-04T05:25:51.744Z,11.70
2019-04-04T05:28:11.462Z,11.97
2019-04-04T05:30:42.347Z,12.50
2019-04-04T05:33:13.126Z,12.07
2019-04-04T05:35:43.882Z,9.80
2019-04-04T05:38:15.551Z,11.90
2019-04-04T05:40:46.354Z,11.27
2019-04-04T05:43:17.170Z,14.37
2019-04-04T05:45:47.992Z,11.20
2019-04-04T05:48:18.774Z,12.37
2019-04-04T05:50:50.096Z,11.87
2019-04-04T05:53:21.876Z,14.70
2019-04-04T05:55:52.700Z,15.63
2019-04-04T05:58:23.545Z,12.57
2019-04-04T06:00:54.374Z,11.63
2019-04-04T06:03:25.526Z,14.57
2019-04-04T06:05:56.406Z,14.40
2019-04-04T06:08:27.251Z,11.33
2019-04-04T06:10:58.014Z,13.37
2019-04-04T06:13:28.826Z,9.90
2019-04-04T06:15:59.867Z,12.93
2019-04-04T06:18:30.824Z,13.20
2019-04-04T06:21:01.633Z,14.47
2019-04-04T06:23:32.425Z,13.37
2019-04-04T06:26:06.345Z,12.20
2019-04-04T06:28:35.747Z,13.87
2019-04-04T06:31:06.501Z,15.47
2019-04-04T06:33:37.296Z,16.83
2019-04-04T06:36:08.089Z,16.87
2019-04-04T06:38:40.046Z,16.87
2019-04-04T06:41:10.923Z,15.60
2019-04-04T06:43:42.091Z,12.87
2019-04-04T06:46:12.932Z,17.83
2019-04-04T06:48:43.744Z,19.80
2019-04-04T06:51:15.747Z,17.90
2019-04-04T06:53:47.015Z,14.47
2019-04-04T06:56:17.982Z,17.20
2019-04-04T06:58:48.764Z,16.03
2019-04-04T07:01:21.869Z,17.83
2019-04-04T07:03:52.812Z,14.97
2019-04-04T07:06:23.682Z,16.30
2019-04-04T07:08:54.469Z,17.00
2019-04-04T07:11:25.322Z,18.13
2019-04-04T07:13:57.038Z,14.70
2019-04-04T07:16:28.587Z,14.87
2019-04-04T07:18:59.397Z,15.93
2019-04-04T07:21:30.200Z,14.80
2019-04-04T07:24:00.641Z,14.00
2019-04-04T07:26:31.413Z,14.67
2019-04-04T07:29:02.204Z,14.07
2019-04-04T07:31:33.962Z,12.87
2019-04-04T07:34:05.490Z,13.90
2019-04-04T07:36:36.292Z,14.53
2019-04-04T07:39:07.356Z,12.77
2019-04-04T07:41:40.223Z,14.83
2019-04-04T07:44:10.576Z,16.23
2019-04-04T07:46:45.371Z,14.53
2019-04-04T07:49:13.846Z,12.87
2019-04-04T07:51:44.844Z,12.93
2019-04-04T07:54:15.614Z,14.27
2019-04-04T07:56:48.798Z,13.60
2019-04-04T07:59:18.834Z,13.17
2019-04-04T08:01:51.535Z,14.60
2019-04-04T08:04:22.546Z,15.70
2019-04-04T08:06:53.335Z,13.50
2019-04-04T08:09:26.221Z,13.87
2019-04-04T08:11:56.591Z,15.97
2019-04-04T08:14:27.467Z,16.10
2019-04-04T08:16:58.310Z,17.30
2019-04-04T08:19:29.093Z,18.27
2019-04-04T08:21:59.900Z,19.70
2019-04-04T08:24:30.721Z,14.90
2019-04-04T08:27:01.555Z,16.87
2019-04-04T08:29:32.393Z,17.97
2019-04-04T08:32:03.166Z,18.10
2019-04-04T08:34:36.262Z,18.17
2019-04-04T08:37:06.416Z,17.23
2019-04-04T08:39:37.666Z,18.47
2019-04-04T08:42:08.447Z,17.97
2019-04-04T08:44:39.218Z,17.33
2019-04-04T08:47:09.979Z,17.47
2019-04-04T08:49:40.764Z,18.50
2019-04-04T08:52:16.913Z,16.70
2019-04-04T08:54:44.158Z,16.93
2019-04-04T08:57:14.955Z,16.90
2019-04-04T08:59:45.718Z,18.97
2019-04-04T09:02:16.501Z,16.97
2019-04-04T09:04:47.344Z,17.73
2019-04-04T09:07:18.102Z,15.23
2019-04-04T09:09:48.991Z,17.03
2019-04-04T09:12:19.829Z,19.60
2019-04-04T09:14:50.688Z,18.37
2019-04-04T09:17:22.442Z,16.47
2019-04-04T09:19:53.195Z,18.10
2019-04-04T09:22:24.309Z,18.50
2019-04-04T09:24:55.259Z,19.63
2019-04-04T09:27:26.051Z,19.03
2019-04-04T09:29:57.784Z,18.57
2019-04-04T09:32:28.640Z,18.83
2019-04-04T09:34:59.419Z,15.53
2019-04-04T09:37:30.235Z,15.20
2019-04-04T09:40:01.079Z,18.13
2019-04-04T09:42:32.940Z,16.93
2019-04-04T09:45:03.771Z,19.27
2019-04-04T09:47:34.613Z,19.23
2019-04-04T09:50:06.998Z,17.03
2019-04-04T09:52:39.053Z,20.63
2019-04-04T09:55:10.538Z,19.50
2019-04-04T09:57:41.384Z,19.27
2019-04-04T10:00:15.188Z,22.03
2019-04-04T10:02:46.064Z,19.87
2019-04-04T10:05:16.915Z,19.53
2019-04-04T10:07:47.799Z,21.60
2019-04-04T10:10:18.789Z,21.93
2019-04-04T10:12:49.584Z,21.20
2019-04-04T10:15:20.351Z,19.77
2019-04-04T10:17:51.141Z,20.43
2019-04-04T10:20:21.919Z,19.77
2019-04-04T10:22:52.752Z,18.47
2019-04-04T10:25:24.510Z,16.60
2019-04-04T10:27:55.435Z,16.20
2019-04-04T10:30:26.172Z,19.53
2019-04-04T10:32:56.982Z,15.37
2019-04-04T10:35:27.797Z,16.17
2019-04-04T10:37:58.549Z,14.30
2019-04-04T10:40:29.384Z,13.93
2019-04-04T10:43:00.300Z,13.00
2019-04-04T10:45:31.194Z,15.90
2019-04-04T10:48:02.033Z,12.87
2019-04-04T10:50:32.786Z,12.20
2019-04-04T10:53:04.744Z,13.43
2019-04-04T10:55:35.611Z,14.50
2019-04-04T10:58:06.435Z,12.70
2019-04-04T11:00:37.211Z,10.83
2019-04-04T11:03:07.995Z,8.13
2019-04-04T11:05:38.798Z,10.40
2019-04-04T11:08:09.805Z,7.37
2019-04-04T11:10:40.585Z,9.87
2019-04-04T11:13:11.364Z,10.40
2019-04-04T11:15:42.214Z,10.73
2019-04-04T11:18:12.997Z,10.60
2019-04-04T11:20:43.791Z,9.97
2019-04-04T11:23:14.564Z,11.27
2019-04-04T11:25:45.346Z,13.77
2019-04-04T11:28:17.025Z,8.57
2019-04-04T11:30:47.801Z,8.67
2019-04-04T11:33:18.659Z,12.83
2019-04-04T11:35:49.515Z,12.90
2019-04-04T11:38:20.309Z,9.57
2019-04-04T11:40:52.053Z,10.67
2019-04-04T11:43:22.908Z,12.40
2019-04-04T11:45:53.769Z,9.47
2019-04-04T11:48:24.668Z,9.77
2019-04-04T11:50:55.477Z,10.73
2019-04-04T11:53:26.280Z,8.27
2019-04-04T11:55:57.130Z,10.47
2019-04-04T11:58:27.984Z,7.40
2019-04-04T12:01:00.101Z,7.87
2019-04-04T12:03:30.874Z,10.03
2019-04-04T12:06:01.647Z,10.77
2019-04-04T12:08:32.458Z,8.60
2019-04-04T12:11:03.330Z,8.70
2019-04-04T12:13:34.162Z,9.80
2019-04-04T12:16:04.975Z,9.63
2019-04-04T12:18:35.763Z,12.73
2019-04-04T12:21:06.549Z,10.87
2019-04-04T12:23:37.331Z,10.37
2019-04-04T12:26:08.182Z,11.23
2019-04-04T12:28:38.962Z,10.40
2019-04-04T12:31:09.774Z,9.13
2019-04-04T12:33:40.561Z,8.13
2019-04-04T12:36:23.842Z,10.03
2019-04-04T12:38:43.963Z,11.07
2019-04-04T12:41:15.745Z,9.67
2019-04-04T12:43:47.730Z,11.03
2019-04-04T12:46:18.522Z,8.77
2019-04-04T12:48:49.354Z,11.33
2019-04-04T12:51:20.199Z,10.50
2019-04-04T12:53:51.020Z,10.53
2019-04-04T12:56:21.820Z,8.93
2019-04-04T12:58:52.665Z,9.77
2019-04-04T13:01:23.440Z,8.83
2019-04-04T13:03:54.252Z,7.87
2019-04-04T13:06:25.097Z,8.63
2019-04-04T13:08:56.886Z,9.70
2019-04-04T13:11:27.752Z,7.43
2019-04-04T13:13:58.569Z,8.37
2019-04-04T13:16:29.384Z,8.07
2019-04-04T13:19:00.184Z,6.37
2019-04-04T13:21:30.998Z,7.40
2019-04-04T13:24:01.883Z,6.40
2019-04-04T13:26:32.710Z,7.47
2019-04-04T13:29:03.591Z,6.37
2019-04-04T13:31:34.429Z,6.87
2019-04-04T13:34:06.104Z,6.77
2019-04-04T13:36:37.010Z,8.60
2019-04-04T13:39:10.218Z,7.17
2019-04-04T13:41:41.538Z,8.93
2019-04-04T13:44:12.351Z,6.80
2019-04-04T13:46:43.142Z,6.80
2019-04-04T13:49:13.980Z,6.37
2019-04-04T13:51:44.808Z,6.33
2019-04-04T13:54:15.619Z,7.07
2019-04-04T13:56:46.410Z,5.33
2019-04-04T13:59:17.192Z,8.43
2019-04-04T14:01:48.032Z,6.80
2019-04-04T14:04:20.284Z,6.23
2019-04-04T14:06:51.402Z,8.67
2019-04-04T14:09:22.230Z,5.93
2019-04-04T14:11:53.082Z,6.10
2019-04-04T14:14:23.886Z,4.57
2019-04-04T14:16:54.681Z,5.97
2019-04-04T14:19:25.452Z,7.10
2019-04-04T14:21:56.286Z,6.07
2019-04-04T14:24:27.073Z,7.07
2019-04-04T14:26:57.884Z,6.50
2019-04-04T14:29:28.721Z,6.37
2019-04-04T14:31:59.488Z,7.13
2019-04-04T14:34:30.348Z,7.73
2019-04-04T14:37:01.161Z,8.53
2019-04-04T14:39:31.957Z,6.10
2019-04-04T14:42:03.636Z,8.40
2019-04-04T14:44:35.852Z,8.43
2019-04-04T14:47:06.955Z,7.30
2019-04-04T14:49:37.721Z,6.20
2019-04-04T14:52:08.482Z,6.20
2019-04-04T14:54:39.944Z,6.47
2019-04-04T14:57:10.768Z,6.57
2019-04-04T14:59:41.607Z,5.80
2019-04-04T15:02:12.438Z,6.23
2019-04-04T15:04:43.282Z,6.20
2019-04-04T15:07:14.100Z,6.33
2019-04-04T15:09:44.883Z,5.20
2019-04-04T15:12:15.679Z,5.33
2019-04-04T15:14:46.515Z,6.00
2019-04-04T15:17:17.360Z,4.83
2019-04-04T15:19:48.138Z,6.47
2019-04-04T15:22:18.920Z,6.10
2019-04-04T15:24:49.774Z,7.37
2019-04-04T15:27:20.557Z,7.00
2019-04-04T15:29:51.371Z,7.70
2019-04-04T15:32:22.212Z,5.60
2019-04-04T15:34:53.090Z,6.53
2019-04-04T15:37:23.915Z,5.77
2019-04-04T15:39:54.720Z,5.67
2019-04-04T15:42:26.480Z,6.60
2019-04-04T15:44:57.303Z,6.87
2019-04-04T15:47:28.091Z,5.93
2019-04-04T15:49:59.912Z,6.07
2019-04-04T15:52:30.767Z,7.77
2019-04-04T15:55:02.887Z,6.10
2019-04-04T15:57:33.775Z,6.77
2019-04-04T16:00:05.271Z,6.23
2019-04-04T16:02:36.621Z,6.33
2019-04-04T16:05:08.590Z,5.07
2019-04-04T16:07:39.450Z,5.97
2019-04-04T16:10:11.290Z,5.67
2019-04-04T16:12:42.123Z,6.57
2019-04-04T16:15:12.917Z,6.37
2019-04-04T16:17:43.787Z,7.10
2019-04-04T16:20:15.100Z,4.30
2019-04-04T16:22:46.019Z,4.60
2019-04-04T16:25:16.844Z,5.00
2019-04-04T16:27:47.718Z,7.00
2019-04-04T16:30:18.496Z,8.27
2019-04-04T16:32:49.305Z,4.67
2019-04-04T16:35:21.765Z,5.17
2019-04-04T16:37:54.041Z,3.90
2019-04-04T16:40:24.844Z,3.93
2019-04-04T16:42:56.081Z,4.30
2019-04-04T16:45:29.180Z,5.00
2019-04-04T16:47:59.957Z,3.97
2019-04-04T16:50:30.731Z,4.73
2019-04-04T16:53:01.602Z,6.37
2019-04-04T16:55:33.642Z,4.23
2019-04-04T16:58:06.125Z,3.73
2019-04-04T17:00:36.972Z,4.53
2019-04-04T17:03:07.853Z,5.03
2019-04-04T17:05:38.782Z,4.27
2019-04-04T17:08:09.648Z,4.97
2019-04-04T17:10:40.553Z,5.80
2019-04-04T17:13:11.392Z,6.63
2019-04-04T17:15:42.234Z,6.40
2019-04-04T17:18:13.095Z,5.73
2019-04-04T17:20:43.909Z,4.40
2019-04-04T17:23:14.720Z,4.77
2019-04-04T17:25:45.663Z,3.80
2019-04-04T17:28:16.997Z,3.63
2019-04-04T17:30:48.355Z,4.57
2019-04-04T17:33:19.680Z,4.30
2019-04-04T17:35:53.488Z,4.67
2019-04-04T17:38:24.973Z,6.43
2019-04-04T17:40:56.181Z,6.23
2019-04-04T17:43:29.134Z,4.20
2019-04-04T17:45:59.997Z,6.27
2019-04-04T17:48:32.117Z,3.77
2019-04-04T17:51:03.347Z,4.87
2019-04-04T17:53:34.194Z,3.93
2019-04-04T17:56:06.345Z,4.60
2019-04-04T17:58:37.297Z,3.27
2019-04-04T18:01:09.818Z,4.70
2019-04-04T18:03:40.766Z,4.47
2019-04-04T18:06:11.698Z,3.43
2019-04-04T18:17:56.349Z,4.53
2019-04-04T18:20:26.273Z,5.63
2019-04-04T18:25:54.234Z,5.53
2019-04-04T18:28:25.039Z,6.47
2019-04-04T18:30:55.919Z,7.07
2019-04-04T18:33:27.014Z,5.07
2019-04-04T18:35:58.363Z,4.60
2019-04-04T18:38:29.254Z,5.10
2019-04-04T18:41:00.043Z,7.17
2019-04-04T18:43:31.741Z,5.90
2019-04-04T18:46:02.830Z,6.67
2019-04-04T18:48:33.606Z,6.93
2019-04-04T18:51:04.483Z,6.50
2019-04-04T18:53:35.321Z,6.33
2019-04-04T18:56:06.574Z,6.83
2019-04-04T18:58:37.446Z,6.10
2019-04-04T19:01:15.295Z,5.53
2019-04-04T19:03:46.504Z,4.33
2019-04-04T19:06:20.828Z,5.60
2019-04-04T19:08:51.685Z,6.37
2019-04-04T19:11:22.606Z,4.57
2019-04-04T19:13:53.452Z,3.73
2019-04-04T19:16:24.307Z,5.57
2019-04-04T19:18:55.701Z,4.17
2019-04-04T19:21:27.209Z,5.70
2019-04-04T19:23:58.073Z,5.73
2019-04-04T19:26:28.941Z,5.13
2019-04-04T19:28:59.789Z,4.57
2019-04-04T19:31:30.634Z,10.10
2019-04-04T19:34:01.489Z,16.77
2019-04-04T19:36:32.423Z,11.07
2019-04-04T19:39:03.719Z,10.37
2019-04-04T19:41:41.902Z,13.53
2019-04-04T19:44:12.832Z,13.20
2019-04-04T19:46:44.685Z,7.60
2019-04-04T19:49:15.524Z,9.50
2019-04-04T19:51:46.434Z,7.33
2019-04-04T19:54:19.260Z,6.30
2019-04-04T19:56:49.846Z,5.60
2019-04-04T19:59:20.747Z,5.30
2019-04-04T20:01:53.491Z,6.53
2019-04-04T20:04:24.367Z,4.53
2019-04-04T20:06:55.221Z,4.87
2019-04-04T20:09:26.045Z,6.87
2019-04-04T20:11:56.923Z,5.07
2019-04-04T20:14:29.085Z,5.90
2019-04-04T20:17:00.064Z,4.17
2019-04-04T20:19:31.361Z,5.63
2019-04-04T20:22:02.217Z,9.20
2019-04-04T20:24:33.089Z,5.10
2019-04-04T20:27:03.903Z,6.40
2019-04-04T20:29:34.789Z,4.83
2019-04-04T20:32:05.579Z,4.40
2019-04-04T20:34:36.358Z,4.13
2019-04-04T20:37:07.228Z,5.77
2019-04-04T20:39:38.118Z,4.73
2019-04-04T20:42:08.938Z,3.80
2019-04-04T20:44:39.727Z,7.03
2019-04-04T20:47:10.522Z,5.63
2019-04-04T20:49:41.415Z,4.40
2019-04-04T20:52:12.326Z,5.50
2019-04-04T20:54:43.134Z,5.50
2019-04-04T20:57:14.899Z,5.50
2019-04-04T20:59:45.739Z,5.83
2019-04-04T21:02:17.957Z,5.90
2019-04-04T21:04:48.774Z,6.33
2019-04-04T21:07:19.540Z,6.63
2019-04-04T21:09:50.313Z,7.13
2019-04-04T21:12:21.152Z,6.17
2019-04-04T21:14:52.033Z,7.53
2019-04-04T21:17:22.849Z,5.27
2019-04-04T21:19:53.691Z,4.60
2019-04-04T21:22:27.725Z,5.60
2019-04-04T21:24:57.137Z,5.40
2019-04-04T21:27:27.983Z,7.00
2019-04-04T21:29:58.817Z,6.00
2019-04-04T21:32:29.601Z,7.57
2019-04-04T21:35:00.399Z,5.97
2019-04-04T21:37:31.301Z,5.03
2019-04-04T21:40:02.145Z,6.37
2019-04-04T21:42:33.973Z,7.30
2019-04-04T21:45:05.437Z,5.50
2019-04-04T21:47:36.281Z,8.33
2019-04-04T21:50:08.063Z,5.67
2019-04-04T21:52:38.838Z,6.30
2019-04-04T21:55:09.807Z,6.20
2019-04-04T21:57:40.647Z,7.20
2019-04-04T22:00:11.988Z,5.20
2019-04-04T22:02:46.118Z,6.47
2019-04-04T22:05:16.901Z,6.27
2019-04-04T22:07:47.699Z,7.17
2019-04-04T22:10:18.486Z,5.40
2019-04-04T22:12:49.382Z,8.30
2019-04-04T22:15:20.166Z,6.80
2019-04-04T22:17:50.925Z,7.37
2019-04-04T22:20:21.696Z,9.07
2019-04-04T22:22:52.448Z,8.27
2019-04-04T22:25:23.222Z,7.83
2019-04-04T22:27:54.053Z,7.90
2019-04-04T22:30:24.871Z,8.30
2019-04-04T22:32:55.699Z,8.07
2019-04-04T22:35:26.573Z,8.90
2019-04-04T22:37:57.377Z,6.70
2019-04-04T22:40:28.151Z,8.67
2019-04-04T22:42:59.001Z,7.30
2019-04-04T22:45:29.752Z,7.60
2019-04-04T22:48:00.594Z,8.47
2019-04-04T22:50:31.415Z,7.47
2019-04-04T22:53:02.183Z,8.07
2019-04-04T22:55:32.923Z,8.20
2019-04-04T22:58:03.686Z,9.40
2019-04-04T23:00:34.536Z,7.27
2019-04-04T23:03:07.989Z,8.27
2019-04-04T23:05:38.755Z,6.80
2019-04-04T23:08:09.518Z,9.10
2019-04-04T23:10:40.378Z,7.80
2019-04-04T23:13:11.116Z,7.27
2019-04-04T23:15:41.933Z,7.63
2019-04-04T23:18:12.750Z,7.20
2019-04-04T23:20:44.592Z,7.97
2019-04-04T23:23:15.325Z,10.20
2019-04-04T23:25:46.068Z,6.50
2019-04-04T23:28:16.813Z,8.27
2019-04-04T23:30:47.553Z,5.93
2019-04-04T23:33:18.307Z,7.57
2019-04-04T23:35:50.040Z,6.63
2019-04-04T23:38:20.776Z,7.17
2019-04-04T23:40:51.547Z,9.87
2019-04-04T23:43:22.309Z,6.93
2019-04-04T23:45:53.042Z,7.67
2019-04-04T23:48:23.812Z,8.03
2019-04-04T23:50:54.559Z,7.87
2019-04-04T23:53:25.299Z,7.43
2019-04-04T23:55:56.044Z,7.20
2019-04-04T23:58:26.790Z,6.73
